createdAt,value
2018-12-18T00:02:24.427Z,5.00
2018-12-18T00:05:07.461Z,5.00
2018-12-18T00:07:45.420Z,4.90
2018-12-18T00:10:19.118Z,4.90
2018-12-18T00:12:54.632Z,4.90
2018-12-18T00:15:36.891Z,4.90
2018-12-18T00:18:20.720Z,5.00
2018-12-18T00:20:56.471Z,4.90
2018-12-18T00:26:35.503Z,5.00
2018-12-18T00:29:08.774Z,4.90
2018-12-18T00:31:44.402Z,5.00
2018-12-18T00:34:20.522Z,5.00
2018-12-18T00:37:02.932Z,5.00
2018-12-18T00:39:36.563Z,5.00
2018-12-18T00:42:12.162Z,5.00
2018-12-18T00:47:58.306Z,5.10
2018-12-18T00:50:34.127Z,5.10
2018-12-18T00:53:17.820Z,5.10
2018-12-18T00:55:59.691Z,5.10
2018-12-18T00:58:33.092Z,5.10
2018-12-18T01:01:20.886Z,5.10
2018-12-18T01:04:08.746Z,5.10
2018-12-18T01:06:52.714Z,5.10
2018-12-18T01:09:28.318Z,5.10
2018-12-18T01:12:05.877Z,5.10
2018-12-18T01:14:51.941Z,5.10
2018-12-18T01:17:34.256Z,5.10
2018-12-18T01:20:10.044Z,5.00
2018-12-18T01:22:51.019Z,5.00
2018-12-18T01:25:26.606Z,5.00
2018-12-18T01:28:08.856Z,5.00
2018-12-18T01:30:48.660Z,5.00
2018-12-18T01:33:26.951Z,5.00
2018-12-18T01:36:06.907Z,5.00
2018-12-18T01:38:40.186Z,5.00
2018-12-18T01:41:15.956Z,4.90
2018-12-18T01:43:48.022Z,4.90
2018-12-18T01:46:23.493Z,4.90
2018-12-18T01:48:57.525Z,4.80
2018-12-18T01:51:33.107Z,4.80
2018-12-18T01:54:09.962Z,4.80
2018-12-18T01:56:43.632Z,4.70
2018-12-18T01:59:14.893Z,4.70
2018-12-18T02:01:46.548Z,4.60
2018-12-18T02:04:22.009Z,4.60
2018-12-18T02:07:10.547Z,4.50
2018-12-18T02:09:43.845Z,4.50
2018-12-18T02:12:21.912Z,4.40
2018-12-18T02:14:57.591Z,4.40
2018-12-18T02:17:34.023Z,4.30
2018-12-18T02:20:21.873Z,4.30
2018-12-18T02:22:55.400Z,4.20
2018-12-18T02:25:31.232Z,4.10
2018-12-18T02:28:16.239Z,4.00
2018-12-18T02:31:03.978Z,4.00
2018-12-18T02:33:51.986Z,3.90
2018-12-18T02:36:33.975Z,3.80
2018-12-18T02:39:17.915Z,3.70
2018-12-18T02:41:53.681Z,3.60
2018-12-18T02:44:35.842Z,3.50
2018-12-18T02:47:11.404Z,3.50
2018-12-18T02:49:45.419Z,3.40
2018-12-18T02:52:24.813Z,3.30
2018-12-18T02:55:01.003Z,3.20
2018-12-18T02:57:36.918Z,3.10
2018-12-18T03:00:13.521Z,3.10
2018-12-18T03:02:49.219Z,3.00
2018-12-18T03:05:26.699Z,3.00
2018-12-18T03:08:06.278Z,2.90
2018-12-18T03:10:43.738Z,2.90
2018-12-18T03:13:15.248Z,2.90
2018-12-18T03:15:50.878Z,2.90
2018-12-18T03:18:22.618Z,2.90
2018-12-18T03:20:58.075Z,2.90
2018-12-18T03:23:40.421Z,2.80
2018-12-18T03:26:18.472Z,2.80
2018-12-18T03:28:50.207Z,2.80
2018-12-18T03:31:30.906Z,2.70
2018-12-18T03:34:04.355Z,2.70
2018-12-18T03:36:39.775Z,2.70
2018-12-18T03:39:16.194Z,2.70
2018-12-18T03:41:54.279Z,2.70
2018-12-18T03:44:36.685Z,2.70
2018-12-18T03:47:20.633Z,2.70
2018-12-18T03:49:58.967Z,2.70
2018-12-18T03:52:46.866Z,2.80
2018-12-18T03:55:22.587Z,2.80
2018-12-18T03:58:00.314Z,2.80
2018-12-18T04:00:42.629Z,2.80
2018-12-18T04:03:30.698Z,2.90
2018-12-18T04:06:06.565Z,2.90
2018-12-18T04:08:40.330Z,2.90
2018-12-18T04:11:31.121Z,2.90
2018-12-18T04:14:13.307Z,2.90
2018-12-18T04:17:01.279Z,3.00
2018-12-18T04:19:34.853Z,3.00
2018-12-18T04:22:22.648Z,3.00
2018-12-18T04:24:58.344Z,3.00
2018-12-18T04:27:38.339Z,3.00
2018-12-18T04:30:14.447Z,3.00
2018-12-18T04:32:51.837Z,3.10
2018-12-18T04:35:33.768Z,3.10
2018-12-18T04:38:12.885Z,3.20
2018-12-18T04:40:49.065Z,3.20
2018-12-18T04:43:27.312Z,3.20
2018-12-18T04:46:03.498Z,3.20
2018-12-18T04:48:43.593Z,3.30
2018-12-18T04:51:19.676Z,3.30
2018-12-18T04:54:03.985Z,3.30
2018-12-18T04:56:47.997Z,3.30
2018-12-18T04:59:26.369Z,3.30
2018-12-18T05:02:03.987Z,3.30
2018-12-18T05:04:40.477Z,3.30
2018-12-18T05:07:16.628Z,3.30
2018-12-18T05:09:52.794Z,3.40
2018-12-18T05:12:45.126Z,3.40
2018-12-18T05:15:20.998Z,3.40
2018-12-18T05:17:57.197Z,3.40
2018-12-18T05:23:12.344Z,3.50
2018-12-18T05:25:54.611Z,3.50
2018-12-18T05:28:40.887Z,3.50
2018-12-18T05:31:22.776Z,3.60
2018-12-18T05:34:04.669Z,3.60
2018-12-18T05:36:47.216Z,3.60
2018-12-18T05:39:27.300Z,3.60
2018-12-18T05:42:03.447Z,3.60
2018-12-18T05:44:35.395Z,3.70
2018-12-18T05:47:15.162Z,3.60
2018-12-18T05:49:49.093Z,3.60
2018-12-18T05:52:28.666Z,3.60
2018-12-18T05:55:04.917Z,3.60
2018-12-18T05:57:42.955Z,3.60
2018-12-18T06:00:25.323Z,3.60
2018-12-18T06:03:02.414Z,3.60
2018-12-18T06:05:44.886Z,3.60
2018-12-18T06:08:18.579Z,3.60
2018-12-18T06:11:03.140Z,3.60
2018-12-18T06:13:43.648Z,3.70
2018-12-18T06:16:23.864Z,3.70
2018-12-18T06:19:07.482Z,3.70
2018-12-18T06:21:38.904Z,3.70
2018-12-18T06:24:15.228Z,3.70
2018-12-18T06:26:57.639Z,3.70
2018-12-18T06:29:33.528Z,3.70
2018-12-18T06:32:07.566Z,3.70
2018-12-18T06:34:43.503Z,3.80
2018-12-18T06:37:17.307Z,3.80
2018-12-18T06:39:53.135Z,3.80
2018-12-18T06:42:40.189Z,3.80
2018-12-18T06:45:32.326Z,3.80
2018-12-18T06:48:12.315Z,3.80
2018-12-18T06:50:50.596Z,3.70
2018-12-18T06:53:25.996Z,3.70
2018-12-18T06:56:04.100Z,3.70
2018-12-18T06:58:46.296Z,3.70
2018-12-18T07:01:19.796Z,3.70
2018-12-18T07:04:08.242Z,3.70
2018-12-18T07:06:50.215Z,3.80
2018-12-18T07:09:34.140Z,3.80
2018-12-18T07:12:14.124Z,3.80
2018-12-18T07:14:52.446Z,3.80
2018-12-18T07:17:40.943Z,3.80
2018-12-18T07:20:16.596Z,3.80
2018-12-18T07:22:56.636Z,3.80
2018-12-18T07:25:32.480Z,3.90
2018-12-18T07:28:12.442Z,3.80
2018-12-18T07:30:48.640Z,3.80
2018-12-18T07:33:30.840Z,3.90
2018-12-18T07:36:14.111Z,3.80
2018-12-18T07:38:53.847Z,3.90
2018-12-18T07:41:36.444Z,3.80
2018-12-18T07:44:16.375Z,3.90
2018-12-18T07:46:56.196Z,3.90
2018-12-18T07:49:32.354Z,3.90
2018-12-18T07:52:05.644Z,3.90
2018-12-18T07:54:45.911Z,3.90
2018-12-18T07:57:22.304Z,3.90
2018-12-18T08:00:02.288Z,3.90
2018-12-18T08:02:34.146Z,4.00
2018-12-18T08:05:11.651Z,4.00
2018-12-18T08:07:48.343Z,4.00
2018-12-18T08:10:20.435Z,4.00
2018-12-18T08:12:59.933Z,4.00
2018-12-18T08:15:37.633Z,4.00
2018-12-18T08:18:21.520Z,4.00
2018-12-18T08:20:55.739Z,4.10
2018-12-18T08:23:38.956Z,4.10
2018-12-18T08:26:14.963Z,4.10
2018-12-18T08:28:55.313Z,4.20
2018-12-18T08:31:29.308Z,4.10
2018-12-18T08:34:02.703Z,4.20
2018-12-18T08:36:38.371Z,4.20
2018-12-18T08:39:12.379Z,4.30
2018-12-18T08:41:57.685Z,4.30
2018-12-18T08:44:33.387Z,4.30
2018-12-18T08:47:13.530Z,4.40
2018-12-18T08:49:45.456Z,4.40
2018-12-18T08:52:21.902Z,4.50
2018-12-18T08:54:57.915Z,4.50
2018-12-18T08:57:29.952Z,4.60
2018-12-18T09:00:01.361Z,4.60
2018-12-18T09:02:40.763Z,4.60
2018-12-18T09:05:21.814Z,4.60
2018-12-18T09:07:57.931Z,4.70
2018-12-18T09:10:40.232Z,4.80
2018-12-18T09:13:24.255Z,4.80
2018-12-18T09:16:10.452Z,4.90
2018-12-18T09:18:42.252Z,4.90
2018-12-18T09:21:19.807Z,5.00
2018-12-18T09:24:02.041Z,5.00
2018-12-18T09:26:45.225Z,5.10
2018-12-18T09:29:21.683Z,5.20
2018-12-18T09:31:57.511Z,5.20
2018-12-18T09:34:39.569Z,5.30
2018-12-18T09:37:16.151Z,5.30
2018-12-18T09:39:49.881Z,5.40
2018-12-18T09:42:26.280Z,5.50
2018-12-18T09:45:08.469Z,5.60
2018-12-18T09:47:56.413Z,5.70
2018-12-18T09:50:32.064Z,5.80
2018-12-18T09:53:20.197Z,5.90
2018-12-18T09:55:56.287Z,6.00
2018-12-18T09:58:27.805Z,6.00
2018-12-18T10:01:03.413Z,6.10
2018-12-18T10:03:45.981Z,6.10
2018-12-18T10:06:21.625Z,6.10
2018-12-18T10:08:56.197Z,6.10
2018-12-18T10:11:38.513Z,6.20
2018-12-18T10:14:14.501Z,6.30
2018-12-18T10:16:50.356Z,6.30
2018-12-18T10:19:26.276Z,6.40
2018-12-18T10:22:06.349Z,6.50
2018-12-18T10:24:43.492Z,6.50
2018-12-18T10:27:19.731Z,6.60
2018-12-18T10:29:52.849Z,6.70
2018-12-18T10:32:26.381Z,6.80
2018-12-18T10:34:59.510Z,6.90
2018-12-18T10:37:35.958Z,6.90
2018-12-18T10:40:18.496Z,7.10
2018-12-18T10:42:55.920Z,7.10
2018-12-18T10:45:32.848Z,7.20
2018-12-18T10:48:06.840Z,7.20
2018-12-18T10:50:54.634Z,7.20
2018-12-18T10:53:30.336Z,7.20
2018-12-18T10:56:08.275Z,7.20
2018-12-18T10:58:55.000Z,7.20
2018-12-18T11:01:40.058Z,7.20
2018-12-18T11:04:19.401Z,7.20
2018-12-18T11:06:54.803Z,7.10
2018-12-18T11:09:30.787Z,7.10
2018-12-18T11:12:17.293Z,7.20
2018-12-18T11:14:59.557Z,7.20
2018-12-18T11:17:45.660Z,7.20
2018-12-18T11:20:24.272Z,7.20
2018-12-18T11:23:00.212Z,7.20
2018-12-18T11:25:36.460Z,7.20
2018-12-18T11:28:12.479Z,7.20
2018-12-18T11:30:50.635Z,7.20
2018-12-18T11:33:26.059Z,7.20
2018-12-18T11:36:02.188Z,7.30
2018-12-18T11:38:40.351Z,7.40
2018-12-18T11:41:16.478Z,7.40
2018-12-18T11:44:04.885Z,7.30
2018-12-18T11:46:43.434Z,7.20
2018-12-18T11:49:16.799Z,7.00
2018-12-18T11:52:00.377Z,6.80
2018-12-18T11:54:37.932Z,6.70
2018-12-18T11:57:13.549Z,6.70
2018-12-18T11:59:46.951Z,6.60
2018-12-18T12:02:22.540Z,6.60
2018-12-18T12:05:00.783Z,6.60
2018-12-18T12:07:39.833Z,6.60
2018-12-18T12:10:21.642Z,6.60
2018-12-18T12:12:55.133Z,6.70
2018-12-18T12:15:30.563Z,6.70
2018-12-18T12:18:06.565Z,6.80
2018-12-18T12:20:42.060Z,6.80
2018-12-18T12:23:14.055Z,6.90
2018-12-18T12:25:53.789Z,7.00
2018-12-18T12:28:27.799Z,6.90
2018-12-18T12:31:05.638Z,7.00
2018-12-18T12:33:41.429Z,7.00
2018-12-18T12:36:17.576Z,7.10
2018-12-18T12:38:54.105Z,7.10
2018-12-18T12:41:27.520Z,7.00
2018-12-18T12:44:07.144Z,7.10
2018-12-18T12:46:55.467Z,7.00
2018-12-18T12:49:45.600Z,7.00
2018-12-18T12:52:34.040Z,6.90
2018-12-18T12:55:19.973Z,6.90
2018-12-18T12:57:55.805Z,7.00
2018-12-18T13:00:34.051Z,7.00
2018-12-18T13:03:10.260Z,6.90
2018-12-18T13:05:52.769Z,6.90
2018-12-18T13:08:30.672Z,6.90
2018-12-18T13:11:08.740Z,6.90
2018-12-18T13:13:46.871Z,6.90
2018-12-18T13:16:23.109Z,6.90
2018-12-18T13:19:01.261Z,6.90
2018-12-18T13:21:39.757Z,6.90
2018-12-18T13:24:17.927Z,6.80
2018-12-18T13:26:53.993Z,6.80
2018-12-18T13:29:28.219Z,6.90
2018-12-18T13:32:15.543Z,6.90
2018-12-18T13:34:51.500Z,6.90
2018-12-18T13:37:25.130Z,6.90
2018-12-18T13:40:02.982Z,7.00
2018-12-18T13:42:38.699Z,6.90
2018-12-18T13:45:14.675Z,6.90
2018-12-18T13:47:53.397Z,6.90
2018-12-18T13:50:35.316Z,6.90
2018-12-18T13:53:11.268Z,6.90
2018-12-18T13:55:44.459Z,6.90
2018-12-18T13:58:18.802Z,6.80
2018-12-18T14:00:54.597Z,6.90
2018-12-18T14:03:28.548Z,6.90
2018-12-18T14:06:10.544Z,6.90
2018-12-18T14:08:52.480Z,6.90
2018-12-18T14:11:40.557Z,6.80
2018-12-18T14:14:18.642Z,6.80
2018-12-18T14:16:54.940Z,6.80
2018-12-18T14:19:37.049Z,6.70
2018-12-18T14:22:13.044Z,6.70
2018-12-18T14:24:55.452Z,6.70
2018-12-18T14:27:43.295Z,6.60
2018-12-18T14:30:19.308Z,6.60
2018-12-18T14:32:59.067Z,6.60
2018-12-18T14:35:38.384Z,6.50
2018-12-18T14:38:14.512Z,6.40
2018-12-18T14:40:56.863Z,6.30
2018-12-18T14:43:36.759Z,6.30
2018-12-18T14:46:25.038Z,6.30
2018-12-18T14:49:00.920Z,6.20
2018-12-18T14:51:39.667Z,6.10
2018-12-18T14:54:13.211Z,6.10
2018-12-18T14:56:49.501Z,6.00
2018-12-18T14:59:23.531Z,6.00
2018-12-18T15:01:59.725Z,5.90
2018-12-18T15:04:43.082Z,5.80
2018-12-18T15:07:18.896Z,5.70
2018-12-18T15:09:52.863Z,5.60
2018-12-18T15:12:28.865Z,5.60
2018-12-18T15:15:08.584Z,5.50
2018-12-18T15:17:45.616Z,5.40
2018-12-18T15:20:21.670Z,5.30
2018-12-18T15:22:55.687Z,5.20
2018-12-18T15:25:31.204Z,5.20
2018-12-18T15:28:06.685Z,5.00
2018-12-18T15:30:40.613Z,5.00
2018-12-18T15:33:15.943Z,5.00
2018-12-18T15:35:48.099Z,4.90
2018-12-18T15:38:29.739Z,4.90
2018-12-18T15:41:05.488Z,4.80
2018-12-18T15:43:41.573Z,4.70
2018-12-18T15:46:19.715Z,4.70
2018-12-18T15:49:08.266Z,4.70
2018-12-18T15:51:44.099Z,4.60
2018-12-18T15:54:25.645Z,4.60
2018-12-18T15:57:03.356Z,4.60
2018-12-18T15:59:37.147Z,4.60
2018-12-18T16:02:10.303Z,4.60
2018-12-18T16:04:45.767Z,4.60
2018-12-18T16:07:21.931Z,4.60
2018-12-18T16:09:55.724Z,4.60
2018-12-18T16:12:35.096Z,4.60
2018-12-18T16:15:17.532Z,4.50
2018-12-18T16:17:53.859Z,4.50
2018-12-18T16:20:30.068Z,4.40
2018-12-18T16:23:05.932Z,4.30
2018-12-18T16:25:41.900Z,4.20
2018-12-18T16:28:21.975Z,4.20
2018-12-18T16:31:05.414Z,4.10
2018-12-18T16:33:49.639Z,4.00
2018-12-18T16:36:23.111Z,3.90
2018-12-18T16:38:59.404Z,3.90
2018-12-18T16:41:33.204Z,3.90
2018-12-18T16:44:08.824Z,3.80
2018-12-18T16:46:44.992Z,3.80
2018-12-18T16:49:21.144Z,3.80
2018-12-18T16:51:55.116Z,3.80
2018-12-18T16:54:32.696Z,3.70
2018-12-18T16:57:15.011Z,3.70
2018-12-18T16:59:56.985Z,3.70
2018-12-18T17:02:35.999Z,3.70
2018-12-18T17:05:18.185Z,3.60
2018-12-18T17:07:53.919Z,3.60
2018-12-18T17:10:30.164Z,3.60
2018-12-18T17:13:06.442Z,3.50
2018-12-18T17:33:53.013Z,3.40
2018-12-18T17:36:24.775Z,3.10
2018-12-18T17:38:57.964Z,3.00
2018-12-18T17:56:44.197Z,2.70
2018-12-18T17:59:19.495Z,2.70
2018-12-18T18:01:55.547Z,2.60
2018-12-18T18:04:31.456Z,2.60
2018-12-18T18:07:07.499Z,2.60
2018-12-18T18:09:43.653Z,2.50
2018-12-18T18:12:29.889Z,2.50
2018-12-18T18:15:09.598Z,2.40
